sensor_id;sensor_type;location;lat;lon;timestamp;P1;durP1;ratioP1;P2;durP2;ratioP2
44304;SDS011;30019;50.576;8.568;2022-12-22T00:00:45;81.55;;;32.00;;
44304;SDS011;30019;50.576;8.568;2022-12-22T00:03:31;116.40;;;33.75;;
44304;SDS011;30019;50.576;8.568;2022-12-22T00:06:15;100.85;;;32.17;;
44304;SDS011;30019;50.576;8.568;2022-12-22T00:08:59;217.45;;;37.78;;
44304;SDS011;30019;50.576;8.568;2022-12-22T00:11:44;94.35;;;32.00;;
44304;SDS011;30019;50.576;8.568;2022-12-22T00:14:29;64.68;;;29.77;;
44304;SDS011;30019;50.576;8.568;2022-12-22T00:17:16;52.38;;;26.48;;
44304;SDS011;30019;50.576;8.568;2022-12-22T00:20:14;71.78;;;27.58;;
44304;SDS011;30019;50.576;8.568;2022-12-22T00:23:01;61.25;;;26.48;;
44304;SDS011;30019;50.576;8.568;2022-12-22T00:25:45;59.30;;;26.23;;
44304;SDS011;30019;50.576;8.568;2022-12-22T00:28:30;90.87;;;31.02;;
44304;SDS011;30019;50.576;8.568;2022-12-22T00:31:15;65.12;;;26.33;;
44304;SDS011;30019;50.576;8.568;2022-12-22T00:34:00;69.85;;;29.55;;
44304;SDS011;30019;50.576;8.568;2022-12-22T00:36:44;84.47;;;29.75;;
44304;SDS011;30019;50.576;8.568;2022-12-22T00:39:29;65.65;;;28.10;;
44304;SDS011;30019;50.576;8.568;2022-12-22T00:42:13;45.75;;;22.62;;
44304;SDS011;30019;50.576;8.568;2022-12-22T00:44:57;43.67;;;20.70;;
44304;SDS011;30019;50.576;8.568;2022-12-22T00:47:42;45.33;;;22.33;;
44304;SDS011;30019;50.576;8.568;2022-12-22T00:50:29;44.13;;;21.52;;
44304;SDS011;30019;50.576;8.568;2022-12-22T00:53:16;65.25;;;30.05;;
44304;SDS011;30019;50.576;8.568;2022-12-22T00:56:04;59.60;;;27.40;;
44304;SDS011;30019;50.576;8.568;2022-12-22T00:58:49;43.33;;;22.75;;
44304;SDS011;30019;50.576;8.568;2022-12-22T01:01:36;43.55;;;21.87;;
44304;SDS011;30019;50.576;8.568;2022-12-22T01:04:20;56.80;;;24.48;;
44304;SDS011;30019;50.576;8.568;2022-12-22T01:07:04;59.53;;;25.25;;
44304;SDS011;30019;50.576;8.568;2022-12-22T01:09:50;37.67;;;19.90;;
44304;SDS011;30019;50.576;8.568;2022-12-22T01:12:36;39.50;;;19.83;;
44304;SDS011;30019;50.576;8.568;2022-12-22T01:15:22;34.85;;;18.35;;
44304;SDS011;30019;50.576;8.568;2022-12-22T01:18:07;31.17;;;17.15;;
44304;SDS011;30019;50.576;8.568;2022-12-22T01:20:51;25.33;;;14.65;;
44304;SDS011;30019;50.576;8.568;2022-12-22T01:23:37;24.77;;;14.27;;
44304;SDS011;30019;50.576;8.568;2022-12-22T01:26:22;19.75;;;12.13;;
44304;SDS011;30019;50.576;8.568;2022-12-22T01:29:06;9.30;;;6.70;;
44304;SDS011;30019;50.576;8.568;2022-12-22T01:34:35;10.00;;;5.73;;
44304;SDS011;30019;50.576;8.568;2022-12-22T01:37:19;15.18;;;7.37;;
44304;SDS011;30019;50.576;8.568;2022-12-22T01:40:03;9.68;;;6.20;;
44304;SDS011;30019;50.576;8.568;2022-12-22T01:42:48;8.27;;;5.87;;
44304;SDS011;30019;50.576;8.568;2022-12-22T01:45:34;6.78;;;5.22;;
44304;SDS011;30019;50.576;8.568;2022-12-22T01:48:29;7.82;;;4.43;;
44304;SDS011;30019;50.576;8.568;2022-12-22T01:51:35;4.90;;;3.67;;
44304;SDS011;30019;50.576;8.568;2022-12-22T01:54:19;3.45;;;3.05;;
44304;SDS011;30019;50.576;8.568;2022-12-22T01:57:03;2.85;;;2.65;;
44304;SDS011;30019;50.576;8.568;2022-12-22T01:59:47;2.50;;;2.30;;
44304;SDS011;30019;50.576;8.568;2022-12-22T02:02:32;2.37;;;2.20;;
44304;SDS011;30019;50.576;8.568;2022-12-22T02:05:16;7.40;;;2.28;;
44304;SDS011;30019;50.576;8.568;2022-12-22T02:23:06;1.92;;;1.83;;
44304;SDS011;30019;50.576;8.568;2022-12-22T02:29:36;2.28;;;1.87;;
44304;SDS011;30019;50.576;8.568;2022-12-22T02:32:24;1.70;;;1.50;;
44304;SDS011;30019;50.576;8.568;2022-12-22T02:35:12;1.60;;;1.50;;
44304;SDS011;30019;50.576;8.568;2022-12-22T02:46:54;5.72;;;2.20;;
44304;SDS011;30019;50.576;8.568;2022-12-22T02:52:41;6.07;;;3.20;;
44304;SDS011;30019;50.576;8.568;2022-12-22T02:55:28;7.18;;;3.80;;
44304;SDS011;30019;50.576;8.568;2022-12-22T02:58:14;10.68;;;3.55;;
44304;SDS011;30019;50.576;8.568;2022-12-22T03:00:59;10.90;;;4.45;;
44304;SDS011;30019;50.576;8.568;2022-12-22T03:03:45;8.02;;;4.22;;
44304;SDS011;30019;50.576;8.568;2022-12-22T03:06:30;4.65;;;3.20;;
44304;SDS011;30019;50.576;8.568;2022-12-22T03:09:14;8.15;;;2.90;;
44304;SDS011;30019;50.576;8.568;2022-12-22T03:14:42;6.60;;;4.43;;
44304;SDS011;30019;50.576;8.568;2022-12-22T03:20:11;4.55;;;3.67;;
44304;SDS011;30019;50.576;8.568;2022-12-22T03:22:55;12.02;;;8.15;;
44304;SDS011;30019;50.576;8.568;2022-12-22T03:28:15;21.12;;;12.07;;
44304;SDS011;30019;50.576;8.568;2022-12-22T03:30:41;18.27;;;12.93;;
44304;SDS011;30019;50.576;8.568;2022-12-22T03:33:07;19.75;;;13.65;;
44304;SDS011;30019;50.576;8.568;2022-12-22T03:35:33;20.52;;;12.98;;
44304;SDS011;30019;50.576;8.568;2022-12-22T03:37:58;16.27;;;12.13;;
44304;SDS011;30019;50.576;8.568;2022-12-22T03:40:30;20.60;;;12.77;;
44304;SDS011;30019;50.576;8.568;2022-12-22T03:42:56;18.33;;;10.52;;
44304;SDS011;30019;50.576;8.568;2022-12-22T03:45:40;19.12;;;10.73;;
44304;SDS011;30019;50.576;8.568;2022-12-22T03:48:24;21.33;;;12.60;;
44304;SDS011;30019;50.576;8.568;2022-12-22T03:50:50;20.27;;;12.93;;
44304;SDS011;30019;50.576;8.568;2022-12-22T03:53:15;24.33;;;13.60;;
44304;SDS011;30019;50.576;8.568;2022-12-22T03:55:41;21.23;;;11.70;;
44304;SDS011;30019;50.576;8.568;2022-12-22T03:58:06;17.48;;;11.70;;
44304;SDS011;30019;50.576;8.568;2022-12-22T04:00:32;16.67;;;11.88;;
44304;SDS011;30019;50.576;8.568;2022-12-22T04:02:58;16.95;;;11.18;;
44304;SDS011;30019;50.576;8.568;2022-12-22T04:05:24;13.82;;;10.13;;
44304;SDS011;30019;50.576;8.568;2022-12-22T04:07:49;10.32;;;7.55;;
44304;SDS011;30019;50.576;8.568;2022-12-22T04:10:15;9.25;;;7.40;;
44304;SDS011;30019;50.576;8.568;2022-12-22T04:12:59;10.68;;;7.68;;
44304;SDS011;30019;50.576;8.568;2022-12-22T04:15:26;15.52;;;8.40;;
44304;SDS011;30019;50.576;8.568;2022-12-22T04:17:53;12.70;;;7.87;;
44304;SDS011;30019;50.576;8.568;2022-12-22T04:20:20;11.25;;;8.45;;
44304;SDS011;30019;50.576;8.568;2022-12-22T04:22:47;11.48;;;7.20;;
44304;SDS011;30019;50.576;8.568;2022-12-22T04:25:13;13.73;;;6.95;;
44304;SDS011;30019;50.576;8.568;2022-12-22T04:27:39;9.45;;;6.90;;
44304;SDS011;30019;50.576;8.568;2022-12-22T04:30:05;8.40;;;5.97;;
44304;SDS011;30019;50.576;8.568;2022-12-22T04:32:31;7.65;;;5.25;;
44304;SDS011;30019;50.576;8.568;2022-12-22T04:34:57;5.93;;;5.15;;
44304;SDS011;30019;50.576;8.568;2022-12-22T04:37:23;11.40;;;5.90;;
44304;SDS011;30019;50.576;8.568;2022-12-22T04:39:48;7.50;;;6.28;;
44304;SDS011;30019;50.576;8.568;2022-12-22T04:42:14;9.20;;;6.25;;
44304;SDS011;30019;50.576;8.568;2022-12-22T04:44:39;10.80;;;5.87;;
44304;SDS011;30019;50.576;8.568;2022-12-22T04:47:05;8.13;;;4.78;;
44304;SDS011;30019;50.576;8.568;2022-12-22T04:49:31;8.00;;;4.43;;
44304;SDS011;30019;50.576;8.568;2022-12-22T04:51:56;6.97;;;5.60;;
44304;SDS011;30019;50.576;8.568;2022-12-22T04:54:22;6.22;;;5.12;;
44304;SDS011;30019;50.576;8.568;2022-12-22T04:56:47;6.85;;;4.00;;
44304;SDS011;30019;50.576;8.568;2022-12-22T04:59:14;6.65;;;3.80;;
44304;SDS011;30019;50.576;8.568;2022-12-22T05:01:45;2.37;;;2.17;;
44304;SDS011;30019;50.576;8.568;2022-12-22T05:04:10;7.20;;;2.75;;
44304;SDS011;30019;50.576;8.568;2022-12-22T05:06:36;6.65;;;2.33;;
44304;SDS011;30019;50.576;8.568;2022-12-22T05:09:01;2.25;;;2.15;;
44304;SDS011;30019;50.576;8.568;2022-12-22T05:11:27;3.20;;;1.80;;
44304;SDS011;30019;50.576;8.568;2022-12-22T05:13:53;6.10;;;1.73;;
44304;SDS011;30019;50.576;8.568;2022-12-22T05:16:19;2.03;;;1.77;;
44304;SDS011;30019;50.576;8.568;2022-12-22T05:18:45;1.65;;;1.55;;
44304;SDS011;30019;50.576;8.568;2022-12-22T05:21:12;1.52;;;1.20;;
44304;SDS011;30019;50.576;8.568;2022-12-22T05:23:42;4.35;;;1.37;;
44304;SDS011;30019;50.576;8.568;2022-12-22T05:26:08;3.17;;;1.30;;
44304;SDS011;30019;50.576;8.568;2022-12-22T05:28:34;1.62;;;1.37;;
44304;SDS011;30019;50.576;8.568;2022-12-22T05:31:03;4.15;;;1.80;;
44304;SDS011;30019;50.576;8.568;2022-12-22T05:33:30;6.20;;;1.73;;
44304;SDS011;30019;50.576;8.568;2022-12-22T05:35:55;1.90;;;1.40;;
44304;SDS011;30019;50.576;8.568;2022-12-22T05:38:21;1.73;;;0.95;;
44304;SDS011;30019;50.576;8.568;2022-12-22T05:40:47;5.60;;;0.90;;
44304;SDS011;30019;50.576;8.568;2022-12-22T05:43:12;2.85;;;1.15;;
44304;SDS011;30019;50.576;8.568;2022-12-22T05:45:38;2.85;;;1.10;;
44304;SDS011;30019;50.576;8.568;2022-12-22T05:48:04;2.92;;;1.35;;
44304;SDS011;30019;50.576;8.568;2022-12-22T05:50:29;1.45;;;0.88;;
44304;SDS011;30019;50.576;8.568;2022-12-22T05:52:56;4.07;;;1.00;;
44304;SDS011;30019;50.576;8.568;2022-12-22T05:55:22;3.90;;;1.15;;
44304;SDS011;30019;50.576;8.568;2022-12-22T05:57:48;3.22;;;1.00;;
44304;SDS011;30019;50.576;8.568;2022-12-22T06:00:14;3.95;;;0.90;;
44304;SDS011;30019;50.576;8.568;2022-12-22T06:02:41;5.40;;;1.02;;
44304;SDS011;30019;50.576;8.568;2022-12-22T06:05:08;5.57;;;0.85;;
44304;SDS011;30019;50.576;8.568;2022-12-22T06:07:35;1.00;;;0.77;;
44304;SDS011;30019;50.576;8.568;2022-12-22T06:10:01;1.23;;;1.00;;
44304;SDS011;30019;50.576;8.568;2022-12-22T06:12:28;1.45;;;0.80;;
44304;SDS011;30019;50.576;8.568;2022-12-22T06:14:54;2.22;;;0.60;;
44304;SDS011;30019;50.576;8.568;2022-12-22T06:17:19;0.70;;;0.70;;
44304;SDS011;30019;50.576;8.568;2022-12-22T06:19:45;2.12;;;1.00;;
44304;SDS011;30019;50.576;8.568;2022-12-22T06:22:16;2.40;;;1.58;;
44304;SDS011;30019;50.576;8.568;2022-12-22T06:24:42;3.17;;;1.70;;
44304;SDS011;30019;50.576;8.568;2022-12-22T06:27:07;8.00;;;1.17;;
44304;SDS011;30019;50.576;8.568;2022-12-22T06:29:35;1.27;;;0.60;;
44304;SDS011;30019;50.576;8.568;2022-12-22T06:32:01;2.30;;;0.70;;
44304;SDS011;30019;50.576;8.568;2022-12-22T06:34:27;1.25;;;0.60;;
44304;SDS011;30019;50.576;8.568;2022-12-22T06:36:52;2.15;;;0.90;;
44304;SDS011;30019;50.576;8.568;2022-12-22T06:39:18;3.15;;;0.70;;
44304;SDS011;30019;50.576;8.568;2022-12-22T06:41:44;1.20;;;0.50;;
44304;SDS011;30019;50.576;8.568;2022-12-22T06:44:28;1.42;;;1.02;;
44304;SDS011;30019;50.576;8.568;2022-12-22T06:46:54;4.70;;;0.70;;
44304;SDS011;30019;50.576;8.568;2022-12-22T06:49:19;0.85;;;0.60;;
44304;SDS011;30019;50.576;8.568;2022-12-22T06:51:45;0.70;;;0.45;;
44304;SDS011;30019;50.576;8.568;2022-12-22T06:54:11;1.58;;;0.50;;
44304;SDS011;30019;50.576;8.568;2022-12-22T06:56:37;0.90;;;0.57;;
44304;SDS011;30019;50.576;8.568;2022-12-22T06:59:03;5.35;;;1.87;;
44304;SDS011;30019;50.576;8.568;2022-12-22T07:01:28;2.72;;;0.50;;
44304;SDS011;30019;50.576;8.568;2022-12-22T07:03:54;3.33;;;0.80;;
44304;SDS011;30019;50.576;8.568;2022-12-22T07:06:20;2.53;;;0.60;;
44304;SDS011;30019;50.576;8.568;2022-12-22T07:08:46;0.87;;;0.53;;
44304;SDS011;30019;50.576;8.568;2022-12-22T07:11:12;0.47;;;0.45;;
44304;SDS011;30019;50.576;8.568;2022-12-22T07:13:38;4.93;;;0.52;;
44304;SDS011;30019;50.576;8.568;2022-12-22T07:16:05;1.87;;;0.50;;
44304;SDS011;30019;50.576;8.568;2022-12-22T07:18:36;3.37;;;2.17;;
44304;SDS011;30019;50.576;8.568;2022-12-22T07:23:33;1.25;;;0.40;;
44304;SDS011;30019;50.576;8.568;2022-12-22T07:26:00;1.00;;;0.50;;
44304;SDS011;30019;50.576;8.568;2022-12-22T07:28:26;0.98;;;0.73;;
44304;SDS011;30019;50.576;8.568;2022-12-22T07:30:53;2.25;;;0.50;;
44304;SDS011;30019;50.576;8.568;2022-12-22T07:33:19;2.12;;;0.47;;
44304;SDS011;30019;50.576;8.568;2022-12-22T07:35:45;1.25;;;0.40;;
44304;SDS011;30019;50.576;8.568;2022-12-22T07:38:11;3.20;;;0.60;;
44304;SDS011;30019;50.576;8.568;2022-12-22T07:40:37;0.90;;;0.88;;
44304;SDS011;30019;50.576;8.568;2022-12-22T07:43:03;2.30;;;0.65;;
44304;SDS011;30019;50.576;8.568;2022-12-22T07:45:28;1.20;;;0.50;;
44304;SDS011;30019;50.576;8.568;2022-12-22T07:47:57;0.85;;;0.68;;
44304;SDS011;30019;50.576;8.568;2022-12-22T07:50:24;2.80;;;1.70;;
44304;SDS011;30019;50.576;8.568;2022-12-22T07:52:55;2.10;;;1.33;;
44304;SDS011;30019;50.576;8.568;2022-12-22T07:55:22;7.95;;;1.35;;
44304;SDS011;30019;50.576;8.568;2022-12-22T07:57:49;4.78;;;0.60;;
44304;SDS011;30019;50.576;8.568;2022-12-22T08:00:16;0.68;;;0.65;;
44304;SDS011;30019;50.576;8.568;2022-12-22T08:02:47;4.10;;;0.80;;
44304;SDS011;30019;50.576;8.568;2022-12-22T08:07:42;1.25;;;0.50;;
44304;SDS011;30019;50.576;8.568;2022-12-22T08:10:08;2.22;;;0.80;;
44304;SDS011;30019;50.576;8.568;2022-12-22T08:12:34;9.05;;;1.00;;
44304;SDS011;30019;50.576;8.568;2022-12-22T08:15:00;3.65;;;1.30;;
44304;SDS011;30019;50.576;8.568;2022-12-22T08:17:26;6.18;;;3.30;;
44304;SDS011;30019;50.576;8.568;2022-12-22T08:19:53;9.73;;;3.00;;
44304;SDS011;30019;50.576;8.568;2022-12-22T08:22:19;5.32;;;2.53;;
44304;SDS011;30019;50.576;8.568;2022-12-22T08:24:48;10.23;;;3.67;;
44304;SDS011;30019;50.576;8.568;2022-12-22T08:27:14;9.32;;;4.35;;
44304;SDS011;30019;50.576;8.568;2022-12-22T08:29:46;13.27;;;3.03;;
44304;SDS011;30019;50.576;8.568;2022-12-22T08:32:14;5.10;;;3.10;;
44304;SDS011;30019;50.576;8.568;2022-12-22T08:34:40;17.42;;;2.75;;
44304;SDS011;30019;50.576;8.568;2022-12-22T08:37:06;5.70;;;2.15;;
44304;SDS011;30019;50.576;8.568;2022-12-22T08:39:40;7.47;;;1.83;;
44304;SDS011;30019;50.576;8.568;2022-12-22T08:42:10;9.55;;;2.60;;
44304;SDS011;30019;50.576;8.568;2022-12-22T08:44:39;3.75;;;1.67;;
44304;SDS011;30019;50.576;8.568;2022-12-22T08:47:05;8.35;;;2.75;;
44304;SDS011;30019;50.576;8.568;2022-12-22T08:49:31;5.62;;;2.80;;
44304;SDS011;30019;50.576;8.568;2022-12-22T08:51:57;9.48;;;2.65;;
44304;SDS011;30019;50.576;8.568;2022-12-22T08:54:23;10.30;;;2.65;;
44304;SDS011;30019;50.576;8.568;2022-12-22T08:56:48;5.12;;;1.80;;
44304;SDS011;30019;50.576;8.568;2022-12-22T08:59:14;8.35;;;2.47;;
44304;SDS011;30019;50.576;8.568;2022-12-22T09:01:41;5.80;;;2.28;;
44304;SDS011;30019;50.576;8.568;2022-12-22T09:04:12;4.05;;;2.20;;
44304;SDS011;30019;50.576;8.568;2022-12-22T09:06:38;7.60;;;1.70;;
44304;SDS011;30019;50.576;8.568;2022-12-22T09:09:04;8.80;;;2.17;;
44304;SDS011;30019;50.576;8.568;2022-12-22T09:11:31;7.28;;;2.20;;
44304;SDS011;30019;50.576;8.568;2022-12-22T09:13:58;6.95;;;2.62;;
44304;SDS011;30019;50.576;8.568;2022-12-22T09:16:25;11.82;;;4.95;;
44304;SDS011;30019;50.576;8.568;2022-12-22T09:18:52;6.72;;;1.80;;
44304;SDS011;30019;50.576;8.568;2022-12-22T09:21:19;8.18;;;2.10;;
44304;SDS011;30019;50.576;8.568;2022-12-22T09:23:45;5.50;;;2.25;;
44304;SDS011;30019;50.576;8.568;2022-12-22T09:26:12;7.30;;;2.08;;
44304;SDS011;30019;50.576;8.568;2022-12-22T09:28:39;2.37;;;1.70;;
44304;SDS011;30019;50.576;8.568;2022-12-22T09:31:05;6.97;;;2.05;;
44304;SDS011;30019;50.576;8.568;2022-12-22T09:33:31;6.12;;;2.62;;
44304;SDS011;30019;50.576;8.568;2022-12-22T09:35:58;5.93;;;1.80;;
44304;SDS011;30019;50.576;8.568;2022-12-22T09:38:27;5.60;;;2.42;;
44304;SDS011;30019;50.576;8.568;2022-12-22T09:40:55;8.43;;;2.80;;
44304;SDS011;30019;50.576;8.568;2022-12-22T09:43:21;6.32;;;2.53;;
44304;SDS011;30019;50.576;8.568;2022-12-22T09:45:51;6.03;;;2.72;;
44304;SDS011;30019;50.576;8.568;2022-12-22T09:48:21;5.43;;;2.47;;
44304;SDS011;30019;50.576;8.568;2022-12-22T09:50:47;6.62;;;3.25;;
44304;SDS011;30019;50.576;8.568;2022-12-22T09:53:17;6.87;;;2.85;;
44304;SDS011;30019;50.576;8.568;2022-12-22T09:55:46;6.95;;;2.40;;
44304;SDS011;30019;50.576;8.568;2022-12-22T09:58:15;4.90;;;1.87;;
44304;SDS011;30019;50.576;8.568;2022-12-22T10:00:46;8.57;;;2.60;;
44304;SDS011;30019;50.576;8.568;2022-12-22T10:06:11;3.47;;;2.05;;
44304;SDS011;30019;50.576;8.568;2022-12-22T10:08:42;6.70;;;1.58;;
44304;SDS011;30019;50.576;8.568;2022-12-22T10:11:12;6.60;;;1.70;;
44304;SDS011;30019;50.576;8.568;2022-12-22T10:13:40;1.25;;;0.90;;
44304;SDS011;30019;50.576;8.568;2022-12-22T10:16:16;1.80;;;0.80;;
44304;SDS011;30019;50.576;8.568;2022-12-22T10:21:33;1.98;;;1.00;;
44304;SDS011;30019;50.576;8.568;2022-12-22T10:23:58;1.58;;;1.00;;
44304;SDS011;30019;50.576;8.568;2022-12-22T10:26:25;2.17;;;1.27;;
44304;SDS011;30019;50.576;8.568;2022-12-22T10:28:57;1.52;;;0.93;;
44304;SDS011;30019;50.576;8.568;2022-12-22T10:31:28;1.08;;;0.90;;
44304;SDS011;30019;50.576;8.568;2022-12-22T10:33:56;1.83;;;0.95;;
44304;SDS011;30019;50.576;8.568;2022-12-22T10:36:41;2.30;;;1.33;;
44304;SDS011;30019;50.576;8.568;2022-12-22T10:39:12;4.07;;;1.42;;
44304;SDS011;30019;50.576;8.568;2022-12-22T10:41:46;2.12;;;1.27;;
44304;SDS011;30019;50.576;8.568;2022-12-22T10:46:40;2.83;;;1.30;;
44304;SDS011;30019;50.576;8.568;2022-12-22T10:49:18;1.27;;;1.00;;
44304;SDS011;30019;50.576;8.568;2022-12-22T10:51:54;1.60;;;1.23;;
44304;SDS011;30019;50.576;8.568;2022-12-22T10:54:38;1.40;;;1.30;;
44304;SDS011;30019;50.576;8.568;2022-12-22T11:00:08;4.15;;;1.58;;
44304;SDS011;30019;50.576;8.568;2022-12-22T11:02:28;4.78;;;2.17;;
44304;SDS011;30019;50.576;8.568;2022-12-22T11:05:00;3.75;;;2.22;;
44304;SDS011;30019;50.576;8.568;2022-12-22T11:07:29;3.90;;;2.37;;
44304;SDS011;30019;50.576;8.568;2022-12-22T11:09:56;2.95;;;2.00;;
44304;SDS011;30019;50.576;8.568;2022-12-22T11:12:25;7.03;;;2.20;;
44304;SDS011;30019;50.576;8.568;2022-12-22T11:15:16;4.20;;;1.70;;
44304;SDS011;30019;50.576;8.568;2022-12-22T11:23:46;2.17;;;1.70;;
44304;SDS011;30019;50.576;8.568;2022-12-22T11:26:42;2.22;;;1.20;;
44304;SDS011;30019;50.576;8.568;2022-12-22T11:32:27;2.53;;;1.58;;
44304;SDS011;30019;50.576;8.568;2022-12-22T11:40:51;2.75;;;1.55;;
44304;SDS011;30019;50.576;8.568;2022-12-22T11:43:27;2.00;;;1.83;;
44304;SDS011;30019;50.576;8.568;2022-12-22T11:46:22;2.15;;;1.70;;
44304;SDS011;30019;50.576;8.568;2022-12-22T12:00:08;4.18;;;3.00;;
44304;SDS011;30019;50.576;8.568;2022-12-22T12:05:42;2.87;;;2.15;;
44304;SDS011;30019;50.576;8.568;2022-12-22T12:16:16;4.35;;;2.87;;
44304;SDS011;30019;50.576;8.568;2022-12-22T12:21:55;3.42;;;3.08;;
44304;SDS011;30019;50.576;8.568;2022-12-22T12:29:36;5.85;;;3.28;;
44304;SDS011;30019;50.576;8.568;2022-12-22T12:32:20;3.83;;;3.25;;
44304;SDS011;30019;50.576;8.568;2022-12-22T12:34:56;4.47;;;3.55;;
44304;SDS011;30019;50.576;8.568;2022-12-22T12:37:28;4.62;;;4.15;;
44304;SDS011;30019;50.576;8.568;2022-12-22T12:40:02;4.90;;;4.32;;
44304;SDS011;30019;50.576;8.568;2022-12-22T12:42:51;5.25;;;4.00;;
44304;SDS011;30019;50.576;8.568;2022-12-22T12:45:31;4.87;;;3.95;;
44304;SDS011;30019;50.576;8.568;2022-12-22T12:53:18;5.87;;;3.90;;
44304;SDS011;30019;50.576;8.568;2022-12-22T12:58:45;3.72;;;3.42;;
44304;SDS011;30019;50.576;8.568;2022-12-22T13:00:59;4.15;;;3.75;;
44304;SDS011;30019;50.576;8.568;2022-12-22T13:05:58;3.60;;;3.30;;
44304;SDS011;30019;50.576;8.568;2022-12-22T13:08:26;4.25;;;3.80;;
44304;SDS011;30019;50.576;8.568;2022-12-22T13:16:34;4.00;;;3.70;;
44304;SDS011;30019;50.576;8.568;2022-12-22T13:18:38;4.75;;;4.35;;
44304;SDS011;30019;50.576;8.568;2022-12-22T13:21:07;5.10;;;4.60;;
44304;SDS011;30019;50.576;8.568;2022-12-22T13:26:16;5.57;;;4.97;;
44304;SDS011;30019;50.576;8.568;2022-12-22T13:28:50;5.55;;;5.05;;
44304;SDS011;30019;50.576;8.568;2022-12-22T13:31:23;4.87;;;4.37;;
44304;SDS011;30019;50.576;8.568;2022-12-22T13:39:18;5.25;;;4.60;;
44304;SDS011;30019;50.576;8.568;2022-12-22T13:41:44;5.32;;;4.78;;
44304;SDS011;30019;50.576;8.568;2022-12-22T13:44:17;5.00;;;4.47;;
44304;SDS011;30019;50.576;8.568;2022-12-22T13:46:48;5.22;;;4.72;;
44304;SDS011;30019;50.576;8.568;2022-12-22T13:49:15;5.43;;;4.55;;
44304;SDS011;30019;50.576;8.568;2022-12-22T13:51:43;5.47;;;4.90;;
44304;SDS011;30019;50.576;8.568;2022-12-22T13:54:15;7.40;;;5.28;;
44304;SDS011;30019;50.576;8.568;2022-12-22T13:56:47;5.97;;;5.37;;
44304;SDS011;30019;50.576;8.568;2022-12-22T14:02:13;5.43;;;4.60;;
44304;SDS011;30019;50.576;8.568;2022-12-22T14:04:41;7.82;;;5.68;;
44304;SDS011;30019;50.576;8.568;2022-12-22T14:09:49;6.03;;;4.72;;
44304;SDS011;30019;50.576;8.568;2022-12-22T14:12:17;5.43;;;4.53;;
44304;SDS011;30019;50.576;8.568;2022-12-22T14:14:45;5.93;;;4.18;;
44304;SDS011;30019;50.576;8.568;2022-12-22T14:17:17;5.20;;;4.18;;
44304;SDS011;30019;50.576;8.568;2022-12-22T14:19:57;6.75;;;5.20;;
44304;SDS011;30019;50.576;8.568;2022-12-22T14:22:39;6.25;;;5.05;;
44304;SDS011;30019;50.576;8.568;2022-12-22T14:25:12;7.87;;;5.90;;
44304;SDS011;30019;50.576;8.568;2022-12-22T14:30:14;6.32;;;5.47;;
44304;SDS011;30019;50.576;8.568;2022-12-22T14:32:42;6.45;;;5.80;;
44304;SDS011;30019;50.576;8.568;2022-12-22T14:37:50;5.80;;;4.80;;
44304;SDS011;30019;50.576;8.568;2022-12-22T14:40:37;7.03;;;5.20;;
44304;SDS011;30019;50.576;8.568;2022-12-22T14:43:05;5.30;;;4.78;;
44304;SDS011;30019;50.576;8.568;2022-12-22T14:45:59;6.68;;;5.07;;
44304;SDS011;30019;50.576;8.568;2022-12-22T14:48:29;6.85;;;5.32;;
44304;SDS011;30019;50.576;8.568;2022-12-22T14:50:56;7.55;;;5.22;;
44304;SDS011;30019;50.576;8.568;2022-12-22T14:53:44;5.78;;;4.70;;
44304;SDS011;30019;50.576;8.568;2022-12-22T14:56:11;6.90;;;5.90;;
44304;SDS011;30019;50.576;8.568;2022-12-22T14:58:38;6.90;;;5.43;;
44304;SDS011;30019;50.576;8.568;2022-12-22T15:04:04;6.28;;;5.65;;
44304;SDS011;30019;50.576;8.568;2022-12-22T15:06:41;6.30;;;5.70;;
44304;SDS011;30019;50.576;8.568;2022-12-22T15:11:42;8.73;;;7.05;;
44304;SDS011;30019;50.576;8.568;2022-12-22T15:14:11;9.73;;;6.32;;
44304;SDS011;30019;50.576;8.568;2022-12-22T15:16:39;8.10;;;5.97;;
44304;SDS011;30019;50.576;8.568;2022-12-22T15:19:05;8.02;;;5.95;;
44304;SDS011;30019;50.576;8.568;2022-12-22T15:21:31;12.68;;;5.90;;
44304;SDS011;30019;50.576;8.568;2022-12-22T15:23:58;9.85;;;5.93;;
44304;SDS011;30019;50.576;8.568;2022-12-22T15:26:24;6.35;;;5.03;;
44304;SDS011;30019;50.576;8.568;2022-12-22T15:28:50;7.12;;;5.05;;
44304;SDS011;30019;50.576;8.568;2022-12-22T15:31:16;9.13;;;5.57;;
44304;SDS011;30019;50.576;8.568;2022-12-22T15:33:42;7.30;;;5.50;;
44304;SDS011;30019;50.576;8.568;2022-12-22T15:36:10;7.15;;;5.40;;
44304;SDS011;30019;50.576;8.568;2022-12-22T15:38:37;8.20;;;5.40;;
44304;SDS011;30019;50.576;8.568;2022-12-22T15:41:03;6.45;;;5.40;;
44304;SDS011;30019;50.576;8.568;2022-12-22T15:43:29;14.57;;;8.85;;
44304;SDS011;30019;50.576;8.568;2022-12-22T15:45:55;12.25;;;8.00;;
44304;SDS011;30019;50.576;8.568;2022-12-22T15:48:22;17.30;;;9.80;;
44304;SDS011;30019;50.576;8.568;2022-12-22T15:50:52;20.77;;;12.93;;
44304;SDS011;30019;50.576;8.568;2022-12-22T15:53:19;25.08;;;14.15;;
44304;SDS011;30019;50.576;8.568;2022-12-22T15:55:49;21.25;;;12.85;;
44304;SDS011;30019;50.576;8.568;2022-12-22T15:58:17;17.95;;;11.40;;
44304;SDS011;30019;50.576;8.568;2022-12-22T16:00:46;21.85;;;11.85;;
44304;SDS011;30019;50.576;8.568;2022-12-22T16:03:12;15.18;;;10.02;;
44304;SDS011;30019;50.576;8.568;2022-12-22T16:05:38;16.62;;;9.65;;
44304;SDS011;30019;50.576;8.568;2022-12-22T16:08:24;14.27;;;10.30;;
44304;SDS011;30019;50.576;8.568;2022-12-22T16:10:52;20.27;;;9.93;;
44304;SDS011;30019;50.576;8.568;2022-12-22T16:13:18;13.38;;;9.43;;
44304;SDS011;30019;50.576;8.568;2022-12-22T16:15:48;14.13;;;10.88;;
44304;SDS011;30019;50.576;8.568;2022-12-22T16:18:14;18.08;;;12.27;;
44304;SDS011;30019;50.576;8.568;2022-12-22T16:20:40;19.42;;;12.27;;
44304;SDS011;30019;50.576;8.568;2022-12-22T16:23:12;20.10;;;14.10;;
44304;SDS011;30019;50.576;8.568;2022-12-22T16:28:08;21.02;;;12.93;;
44304;SDS011;30019;50.576;8.568;2022-12-22T16:30:39;23.73;;;13.98;;
44304;SDS011;30019;50.576;8.568;2022-12-22T16:33:05;21.52;;;14.40;;
44304;SDS011;30019;50.576;8.568;2022-12-22T16:35:30;25.55;;;15.73;;
44304;SDS011;30019;50.576;8.568;2022-12-22T16:37:57;23.27;;;15.10;;
44304;SDS011;30019;50.576;8.568;2022-12-22T16:40:24;23.50;;;14.93;;
44304;SDS011;30019;50.576;8.568;2022-12-22T16:42:57;24.77;;;14.18;;
44304;SDS011;30019;50.576;8.568;2022-12-22T16:45:27;23.90;;;14.38;;
44304;SDS011;30019;50.576;8.568;2022-12-22T16:47:56;29.35;;;14.10;;
44304;SDS011;30019;50.576;8.568;2022-12-22T16:50:25;24.25;;;13.02;;
44304;SDS011;30019;50.576;8.568;2022-12-22T16:52:56;18.65;;;11.30;;
44304;SDS011;30019;50.576;8.568;2022-12-22T16:55:23;17.15;;;11.27;;
44304;SDS011;30019;50.576;8.568;2022-12-22T16:57:49;15.70;;;11.10;;
44304;SDS011;30019;50.576;8.568;2022-12-22T17:00:15;10.45;;;7.15;;
44304;SDS011;30019;50.576;8.568;2022-12-22T17:02:50;7.50;;;5.57;;
44304;SDS011;30019;50.576;8.568;2022-12-22T17:05:24;8.43;;;5.60;;
44304;SDS011;30019;50.576;8.568;2022-12-22T17:08:15;4.12;;;2.83;;
44304;SDS011;30019;50.576;8.568;2022-12-22T17:10:48;5.22;;;2.90;;
44304;SDS011;30019;50.576;8.568;2022-12-22T17:13:15;3.60;;;2.17;;
44304;SDS011;30019;50.576;8.568;2022-12-22T17:15:42;3.97;;;2.20;;
44304;SDS011;30019;50.576;8.568;2022-12-22T17:18:14;13.62;;;9.57;;
44304;SDS011;30019;50.576;8.568;2022-12-22T17:26:06;6.90;;;2.40;;
44304;SDS011;30019;50.576;8.568;2022-12-22T17:28:34;3.05;;;2.40;;
44304;SDS011;30019;50.576;8.568;2022-12-22T17:31:01;3.72;;;1.73;;
44304;SDS011;30019;50.576;8.568;2022-12-22T17:33:26;3.62;;;1.80;;
44304;SDS011;30019;50.576;8.568;2022-12-22T17:35:52;2.85;;;2.00;;
44304;SDS011;30019;50.576;8.568;2022-12-22T17:38:19;4.10;;;2.28;;